Time;durP1;ratioP1;P1;durP2;ratioP2;P2;SDS_P1;SDS_P2;PMS_P1;PMS_P2;Temp;Humidity;BMP_temperature;BMP_pressure;BME280_temperature;BME280_humidity;BME280_pressure;Samples;Min_cycle;Max_cycle;Signal;HPM_P1;HPM_P2
2024/04/08 00:00:39;;;;;;;9.63;2.55;;;14.30;99.90;;;;;;5292263;26;20005;-80
2024/04/08 00:03:05;;;;;;;7.70;2.17;;;14.30;99.90;;;;;;5332150;26;20001;-79
2024/04/08 00:05:31;;;;;;;6.47;2.03;;;14.20;99.90;;;;;;5334489;26;20011;-80
2024/04/08 00:07:56;;;;;;;7.80;2.55;;;14.30;99.90;;;;;;5294069;26;20345;-80
2024/04/08 00:10:22;;;;;;;7.60;2.35;;;14.20;99.90;;;;;;5300900;26;20050;-80
2024/04/08 00:12:47;;;;;;;5.40;2.15;;;14.30;99.90;;;;;;5278648;26;20455;-80
2024/04/08 00:15:13;;;;;;;2.45;1.55;;;14.20;99.90;;;;;;5320252;26;20010;-80
2024/04/08 00:17:42;;;;;;;4.30;1.52;;;14.20;99.90;;;;;;5297695;26;20218;-79
2024/04/08 00:20:09;;;;;;;6.20;2.47;;;14.30;99.90;;;;;;5331895;26;20083;-80
2024/04/08 00:22:34;;;;;;;5.85;1.98;;;14.30;99.90;;;;;;5309578;26;20108;-80
2024/04/08 00:25:00;;;;;;;4.68;1.90;;;14.30;99.90;;;;;;5297614;26;20029;-79
2024/04/08 00:27:25;;;;;;;4.90;2.05;;;14.20;99.90;;;;;;5300010;26;20041;-80
2024/04/08 00:29:51;;;;;;;5.13;2.40;;;14.20;99.90;;;;;;5327741;26;20002;-81
2024/04/08 00:32:16;;;;;;;3.72;2.13;;;14.10;99.90;;;;;;5295452;26;20006;-79
2024/04/08 00:34:42;;;;;;;6.20;2.22;;;14.20;99.90;;;;;;5329672;26;20401;-80
2024/04/08 00:37:08;;;;;;;6.32;2.50;;;14.10;99.90;;;;;;5305020;26;20020;-79
2024/04/08 00:39:34;;;;;;;6.10;2.00;;;14.10;99.90;;;;;;5298696;26;20018;-80
2024/04/08 00:42:00;;;;;;;7.05;2.63;;;14.00;99.90;;;;;;5291611;26;20014;-79
2024/04/08 00:44:26;;;;;;;10.38;2.45;;;14.00;99.90;;;;;;5295313;26;20006;-80
2024/04/08 00:46:51;;;;;;;6.28;2.17;;;14.00;99.90;;;;;;5298910;26;20037;-79
2024/04/08 00:49:17;;;;;;;4.88;2.30;;;14.10;99.90;;;;;;5327998;26;20038;-80
2024/04/08 00:51:43;;;;;;;6.32;2.40;;;14.00;99.90;;;;;;5322889;26;19997;-80
2024/04/08 00:54:16;;;;;;;4.43;1.50;;;14.00;99.90;;;;;;5329931;26;20078;-79
2024/04/08 00:56:42;;;;;;;3.63;2.10;;;14.00;99.90;;;;;;5301795;26;20017;-80
2024/04/08 00:59:09;;;;;;;3.70;1.48;;;14.00;99.90;;;;;;5306946;26;20399;-80
2024/04/08 01:01:35;;;;;;;6.50;2.50;;;13.90;99.90;;;;;;5303922;26;20002;-79
2024/04/08 01:04:00;;;;;;;9.30;2.92;;;14.00;99.90;;;;;;5292250;26;20081;-80
2024/04/08 01:06:26;;;;;;;4.88;2.28;;;14.00;99.90;;;;;;5303153;26;20021;-80
2024/04/08 01:08:51;;;;;;;6.80;2.58;;;13.90;99.90;;;;;;5314111;26;20397;-80
2024/04/08 01:11:17;;;;;;;7.10;2.72;;;13.90;99.90;;;;;;5332398;26;20416;-80
2024/04/08 01:13:43;;;;;;;9.85;2.95;;;13.90;99.90;;;;;;5310258;26;22319;-80
2024/04/08 01:16:09;;;;;;;3.38;1.95;;;13.90;99.90;;;;;;5330138;26;20024;-80
2024/04/08 01:18:34;;;;;;;8.32;3.10;;;14.00;99.90;;;;;;5299172;26;20672;-80
2024/04/08 01:21:00;;;;;;;4.45;2.63;;;13.90;99.90;;;;;;5301949;26;20543;-81
2024/04/08 01:23:27;;;;;;;7.35;2.80;;;13.90;99.90;;;;;;5298701;26;19998;-80
2024/04/08 01:25:53;;;;;;;3.20;2.13;;;13.90;99.90;;;;;;5279375;26;20002;-80
2024/04/08 01:28:19;;;;;;;5.75;2.42;;;13.90;99.90;;;;;;5323489;26;20013;-80
2024/04/08 01:30:44;;;;;;;7.53;2.75;;;13.90;99.90;;;;;;5303547;26;20019;-80
2024/04/08 01:33:10;;;;;;;14.20;3.67;;;13.90;99.90;;;;;;5301333;26;20059;-80
2024/04/08 01:35:35;;;;;;;4.68;2.55;;;13.90;99.90;;;;;;5328200;26;20346;-80
2024/04/08 01:38:01;;;;;;;5.10;2.90;;;13.90;99.90;;;;;;5326629;26;20377;-80
2024/04/08 01:40:26;;;;;;;10.52;4.20;;;13.80;99.90;;;;;;5273911;26;20002;-80
2024/04/08 01:42:52;;;;;;;4.97;3.15;;;13.80;99.90;;;;;;5297323;26;20486;-80
2024/04/08 01:45:17;;;;;;;7.72;3.05;;;13.80;99.90;;;;;;5307996;26;20021;-80
2024/04/08 01:47:43;;;;;;;5.00;2.83;;;13.80;99.90;;;;;;5303535;26;20408;-80
2024/04/08 01:50:09;;;;;;;7.13;2.95;;;13.90;99.90;;;;;;5296054;26;20009;-80
2024/04/08 01:52:34;;;;;;;6.65;3.60;;;14.10;99.90;;;;;;5265055;26;20003;-80
2024/04/08 01:55:00;;;;;;;7.15;3.63;;;13.90;99.90;;;;;;5322242;26;20033;-80
2024/04/08 01:57:27;;;;;;;6.43;3.22;;;13.80;99.90;;;;;;5301426;26;20002;-81
2024/04/08 01:59:53;;;;;;;9.98;3.17;;;13.80;99.90;;;;;;5332810;26;20012;-80
2024/04/08 02:02:18;;;;;;;4.45;3.20;;;13.80;99.90;;;;;;5342019;26;20512;-79
2024/04/08 02:04:44;;;;;;;8.40;2.97;;;13.70;99.90;;;;;;5361220;26;20024;-80
2024/04/08 02:07:09;;;;;;;5.82;3.22;;;13.70;99.90;;;;;;5392507;26;20037;-79
2024/04/08 02:09:35;;;;;;;5.03;2.88;;;13.60;99.90;;;;;;5355202;26;20001;-79
2024/04/08 02:12:02;;;;;;;8.40;3.22;;;13.70;99.90;;;;;;5332954;26;20029;-79
2024/04/08 02:14:27;;;;;;;8.35;3.33;;;13.60;99.90;;;;;;5307419;26;20001;-79
2024/04/08 02:16:53;;;;;;;8.32;3.08;;;13.60;99.90;;;;;;5315230;26;20086;-79
2024/04/08 02:19:18;;;;;;;4.40;2.92;;;13.60;99.90;;;;;;5312876;26;20009;-79
2024/04/08 02:21:44;;;;;;;7.53;3.20;;;13.60;99.90;;;;;;5324797;26;20008;-79
2024/04/08 02:24:09;;;;;;;8.80;3.35;;;13.50;99.90;;;;;;5327622;26;20041;-79
2024/04/08 02:26:35;;;;;;;7.25;3.45;;;13.50;99.90;;;;;;5350770;26;20002;-79
2024/04/08 02:29:00;;;;;;;4.10;2.80;;;13.50;99.90;;;;;;5313654;26;20013;-80
2024/04/08 02:31:26;;;;;;;2.80;2.25;;;13.40;99.90;;;;;;5337478;26;20005;-80
2024/04/08 02:33:52;;;;;;;7.00;2.88;;;13.40;99.90;;;;;;5359454;26;20427;-79
2024/04/08 02:36:17;;;;;;;6.78;2.97;;;13.40;99.90;;;;;;5363342;26;20005;-79
2024/04/08 02:38:43;;;;;;;3.47;3.15;;;13.40;99.90;;;;;;5330768;26;20945;-79
2024/04/08 02:41:08;;;;;;;3.40;2.78;;;13.30;99.90;;;;;;5326593;26;20006;-79
2024/04/08 02:43:34;;;;;;;7.03;2.83;;;13.20;99.90;;;;;;5325896;26;20017;-80
2024/04/08 02:45:59;;;;;;;10.88;3.13;;;13.20;99.90;;;;;;5315484;26;20016;-80
2024/04/08 02:48:25;;;;;;;5.40;3.20;;;13.10;99.90;;;;;;5310977;26;20077;-80
2024/04/08 02:50:51;;;;;;;8.32;3.28;;;13.00;99.90;;;;;;5362306;26;20016;-80
2024/04/08 02:53:17;;;;;;;7.65;4.20;;;13.00;99.90;;;;;;5361607;26;20020;-80
2024/04/08 02:55:42;;;;;;;3.60;1.95;;;12.90;99.90;;;;;;5307067;26;20001;-80
2024/04/08 02:58:08;;;;;;;5.30;2.67;;;12.90;99.90;;;;;;5332523;26;20014;-80
2024/04/08 03:00:40;;;;;;;7.38;3.70;;;12.90;99.90;;;;;;5315451;26;20005;-80
2024/04/08 03:03:06;;;;;;;5.78;3.00;;;13.00;99.90;;;;;;5331627;26;20334;-80
2024/04/08 03:05:32;;;;;;;5.57;3.58;;;12.80;99.90;;;;;;5305228;26;20001;-81
2024/04/08 03:07:57;;;;;;;9.00;3.15;;;12.70;99.90;;;;;;5333668;26;20419;-80
2024/04/08 03:10:23;;;;;;;8.27;3.40;;;12.80;99.90;;;;;;5329091;26;20052;-80
2024/04/08 03:12:49;;;;;;;8.65;3.80;;;12.70;99.90;;;;;;5287695;26;20065;-80
2024/04/08 03:15:15;;;;;;;5.85;3.67;;;12.70;99.90;;;;;;5328005;26;20080;-80
2024/04/08 03:17:40;;;;;;;8.02;3.95;;;12.70;99.90;;;;;;5384157;26;20013;-80
2024/04/08 03:20:07;;;;;;;10.73;4.15;;;12.70;99.90;;;;;;5299024;26;20005;-80
2024/04/08 03:22:32;;;;;;;7.40;3.85;;;12.60;99.90;;;;;;5323475;26;20011;-80
2024/04/08 03:24:58;;;;;;;10.65;4.70;;;12.60;99.90;;;;;;5338771;26;20851;-80
2024/04/08 03:27:23;;;;;;;6.63;3.65;;;12.60;99.90;;;;;;5387797;26;20008;-80
2024/04/08 03:29:52;;;;;;;5.70;4.10;;;12.70;99.90;;;;;;5299444;26;20018;-79
2024/04/08 03:32:17;;;;;;;7.97;4.38;;;12.80;99.90;;;;;;5306576;26;20013;-80
2024/04/08 03:34:43;;;;;;;8.73;4.40;;;12.60;99.90;;;;;;5333388;26;20012;-81
2024/04/08 03:37:09;;;;;;;9.63;4.35;;;12.60;99.90;;;;;;5351541;26;20005;-80
2024/04/08 03:39:35;;;;;;;9.43;5.03;;;12.50;99.90;;;;;;5295210;26;20017;-80
2024/04/08 03:42:00;;;;;;;10.60;5.15;;;12.40;99.90;;;;;;5327537;26;20000;-81
2024/04/08 03:44:28;;;;;;;10.88;4.70;;;12.50;99.90;;;;;;5349932;26;20026;-80
2024/04/08 03:46:54;;;;;;;7.57;4.65;;;12.40;99.90;;;;;;5356289;26;20008;-81
2024/04/08 03:49:19;;;;;;;13.57;5.78;;;12.40;99.90;;;;;;5353356;26;20099;-80
2024/04/08 03:51:45;;;;;;;7.55;5.60;;;12.30;99.90;;;;;;5359453;26;20000;-80
2024/04/08 03:54:10;;;;;;;10.27;5.60;;;12.20;99.90;;;;;;5305651;26;20016;-80
2024/04/08 03:56:36;;;;;;;11.15;5.53;;;12.30;99.90;;;;;;5305660;26;20032;-80
2024/04/08 03:59:09;;;;;;;9.27;6.25;;;12.40;99.90;;;;;;5336475;26;20012;-80
2024/04/08 04:01:34;;;;;;;13.60;6.25;;;12.30;99.90;;;;;;5382140;26;21194;-81
2024/04/08 04:04:00;;;;;;;12.65;6.90;;;12.30;99.90;;;;;;5322087;26;20027;-81
2024/04/08 04:06:25;;;;;;;13.57;6.45;;;12.20;99.90;;;;;;5314155;26;20320;-80
2024/04/08 04:08:51;;;;;;;11.93;6.28;;;12.20;99.90;;;;;;5330374;26;20075;-80
2024/04/08 04:11:16;;;;;;;11.52;4.43;;;12.20;99.90;;;;;;5335739;26;20002;-80
2024/04/08 04:13:42;;;;;;;11.20;6.07;;;12.20;99.90;;;;;;5333514;26;20005;-79
2024/04/08 04:16:08;;;;;;;13.50;5.63;;;12.20;99.90;;;;;;5333495;26;20016;-79
2024/04/08 04:18:33;;;;;;;9.05;6.25;;;12.10;99.90;;;;;;5320266;26;20012;-79
2024/04/08 04:21:03;;;;;;;12.13;6.78;;;12.10;99.90;;;;;;5363233;26;20460;-79
2024/04/08 04:23:29;;;;;;;16.90;7.30;;;12.10;99.90;;;;;;5369346;26;20793;-80
2024/04/08 04:25:57;;;;;;;13.60;6.95;;;12.00;99.90;;;;;;5299630;26;20019;-79
2024/04/08 04:28:23;;;;;;;13.00;6.90;;;11.90;99.90;;;;;;5332079;26;20469;-79
2024/04/08 04:30:53;;;;;;;10.18;6.90;;;11.90;99.90;;;;;;5338396;26;20005;-80
2024/04/08 04:33:19;;;;;;;12.80;7.70;;;11.90;99.90;;;;;;5332107;26;20048;-79
2024/04/08 04:35:54;;;;;;;12.82;7.75;;;11.90;99.90;;;;;;5335756;26;20389;-79
2024/04/08 04:38:20;;;;;;;13.05;8.02;;;11.80;99.90;;;;;;5309441;26;20121;-79
2024/04/08 04:40:45;;;;;;;14.95;7.88;;;11.80;99.90;;;;;;5328888;26;20078;-80
2024/04/08 04:43:11;;;;;;;12.45;8.82;;;11.80;99.90;;;;;;5334784;26;20017;-80
2024/04/08 04:45:36;;;;;;;13.75;8.55;;;11.80;99.90;;;;;;5310173;26;20019;-78
2024/04/08 04:48:02;;;;;;;14.43;8.57;;;11.80;99.90;;;;;;5332737;26;20329;-80
2024/04/08 04:50:29;;;;;;;17.58;8.93;;;11.90;99.90;;;;;;5369070;26;20508;-79
2024/04/08 04:52:55;;;;;;;17.35;10.10;;;11.70;99.90;;;;;;5363305;26;20016;-80
2024/04/08 04:55:21;;;;;;;19.88;9.55;;;11.70;99.90;;;;;;5360293;26;20005;-78
2024/04/08 04:57:46;;;;;;;14.90;9.90;;;11.70;99.90;;;;;;5351834;26;19998;-80
2024/04/08 05:00:12;;;;;;;13.40;6.65;;;11.70;99.90;;;;;;5387016;26;20008;-80
2024/04/08 05:02:39;;;;;;;14.60;7.35;;;11.90;99.90;;;;;;5338320;26;20107;-80
2024/04/08 05:05:05;;;;;;;16.52;8.70;;;11.90;99.90;;;;;;5311798;26;20027;-80
2024/04/08 05:07:30;;;;;;;15.10;8.90;;;11.80;99.90;;;;;;5326218;26;19998;-80
2024/04/08 05:09:57;;;;;;;16.02;9.05;;;11.80;99.90;;;;;;5338324;26;20029;-80
2024/04/08 05:12:23;;;;;;;17.45;9.30;;;11.80;99.90;;;;;;5330172;26;20464;-80
2024/04/08 05:14:48;;;;;;;11.85;7.07;;;11.80;99.90;;;;;;5339274;26;20002;-80
2024/04/08 05:17:14;;;;;;;9.45;6.78;;;11.90;99.90;;;;;;5310535;26;20446;-79
2024/04/08 05:19:39;;;;;;;14.75;7.40;;;11.80;99.90;;;;;;5336345;26;20008;-80
2024/04/08 05:22:05;;;;;;;10.93;7.82;;;11.90;99.90;;;;;;5324237;26;20290;-80
2024/04/08 05:24:31;;;;;;;12.25;8.45;;;12.00;99.90;;;;;;5309231;26;20013;-80
2024/04/08 05:26:57;;;;;;;16.30;9.80;;;12.00;99.90;;;;;;5325164;26;20284;-80
2024/04/08 05:29:23;;;;;;;12.70;8.90;;;12.00;99.90;;;;;;5341629;26;20535;-80
2024/04/08 05:31:50;;;;;;;16.58;8.93;;;12.00;99.90;;;;;;5328289;26;20042;-81
2024/04/08 05:34:16;;;;;;;13.00;7.63;;;12.00;99.90;;;;;;5316611;26;20001;-80
2024/04/08 05:36:41;;;;;;;11.48;7.65;;;12.00;99.90;;;;;;5362833;26;20771;-80
2024/04/08 05:39:07;;;;;;;16.10;7.07;;;12.10;99.90;;;;;;5333648;26;20041;-80
2024/04/08 05:41:33;;;;;;;12.27;7.78;;;12.10;99.90;;;;;;5391260;26;20054;-80
2024/04/08 05:43:58;;;;;;;16.10;6.53;;;12.20;99.90;;;;;;5364748;26;20021;-80
2024/04/08 05:46:27;;;;;;;10.48;6.75;;;12.20;99.90;;;;;;5338321;26;22476;-80
2024/04/08 05:48:52;;;;;;;12.50;7.90;;;12.20;99.90;;;;;;5314367;26;20348;-80
2024/04/08 05:51:18;;;;;;;14.93;7.88;;;12.30;99.90;;;;;;5335581;26;20006;-80
2024/04/08 05:53:43;;;;;;;11.93;7.25;;;12.30;99.90;;;;;;5338119;26;20048;-80
2024/04/08 05:56:09;;;;;;;18.63;7.07;;;12.40;99.90;;;;;;5330274;26;20012;-80
2024/04/08 05:58:34;;;;;;;15.55;6.72;;;12.50;99.90;;;;;;5386522;26;20767;-81
2024/04/08 06:01:00;;;;;;;11.63;4.93;;;12.50;99.90;;;;;;5403407;26;20933;-80
2024/04/08 06:03:25;;;;;;;16.02;7.88;;;12.60;99.90;;;;;;5308799;26;20019;-81
2024/04/08 06:05:51;;;;;;;12.35;7.00;;;12.80;99.90;;;;;;5340170;26;20338;-80
2024/04/08 06:08:17;;;;;;;16.67;8.13;;;12.90;99.90;;;;;;5334483;26;20020;-80
2024/04/08 06:10:50;;;;;;;14.05;5.43;;;13.00;99.90;;;;;;5327703;26;20044;-80
2024/04/08 06:13:16;;;;;;;14.80;7.10;;;13.10;99.90;;;;;;5362806;26;20008;-80
2024/04/08 06:15:41;;;;;;;11.95;7.10;;;13.20;99.90;;;;;;5367905;26;20015;-79
2024/04/08 06:18:07;;;;;;;12.70;6.88;;;13.20;99.90;;;;;;5386967;26;20005;-80
2024/04/08 06:20:32;;;;;;;9.63;6.45;;;13.30;99.90;;;;;;5339279;26;20441;-80
2024/04/08 06:23:00;;;;;;;15.30;7.80;;;13.20;99.90;;;;;;5308535;26;20445;-79
2024/04/08 06:25:26;;;;;;;13.50;7.30;;;13.40;99.90;;;;;;5335554;26;20029;-80
2024/04/08 06:27:51;;;;;;;15.65;8.05;;;13.40;99.90;;;;;;5357575;26;20074;-80
2024/04/08 06:30:17;;;;;;;9.93;6.00;;;13.50;99.90;;;;;;5336763;26;20373;-79
2024/04/08 06:32:48;;;;;;;11.73;6.45;;;13.70;99.90;;;;;;5360326;26;20017;-79
2024/04/08 06:35:15;;;;;;;15.93;7.18;;;13.80;99.90;;;;;;5295357;26;20499;-79
2024/04/08 06:37:41;;;;;;;5.93;4.18;;;13.90;99.90;;;;;;5340930;26;20453;-79
2024/04/08 06:40:09;;;;;;;10.05;5.40;;;14.00;99.90;;;;;;5304598;26;20005;-79
2024/04/08 06:42:34;;;;;;;10.00;4.88;;;14.10;99.90;;;;;;5307470;26;20034;-79
2024/04/08 06:45:00;;;;;;;9.65;6.28;;;14.30;99.90;;;;;;5328134;26;20036;-80
2024/04/08 06:47:28;;;;;;;14.65;7.45;;;14.30;99.90;;;;;;5358865;26;19996;-79
2024/04/08 06:49:53;;;;;;;14.68;8.15;;;14.40;99.90;;;;;;5300488;26;19997;-79
2024/04/08 06:52:19;;;;;;;17.70;8.25;;;14.40;99.90;;;;;;5328488;26;21029;-79
2024/04/08 06:54:45;;;;;;;22.13;8.75;;;14.50;99.90;;;;;;5329422;26;20005;-80
2024/04/08 06:57:11;;;;;;;17.05;8.77;;;14.50;99.90;;;;;;5336339;26;20075;-80
2024/04/08 06:59:37;;;;;;;13.25;7.15;;;14.60;99.90;;;;;;5384958;26;20033;-79
2024/04/08 07:02:04;;;;;;;15.40;7.80;;;14.70;99.90;;;;;;5334035;26;20079;-79
2024/04/08 07:04:30;;;;;;;15.52;8.40;;;14.90;99.90;;;;;;5339226;26;20005;-80
2024/04/08 07:06:55;;;;;;;9.25;5.50;;;15.00;99.90;;;;;;5336923;26;20015;-79
2024/04/08 07:09:25;;;;;;;16.05;8.60;;;15.10;99.90;;;;;;5337182;26;20005;-79
2024/04/08 07:11:51;;;;;;;14.73;7.28;;;15.20;99.90;;;;;;5323074;26;20020;-79
2024/04/08 07:14:17;;;;;;;10.27;5.90;;;15.40;99.90;;;;;;5310922;26;20028;-79
2024/04/08 07:16:42;;;;;;;10.20;6.85;;;15.50;99.90;;;;;;5307901;26;20001;-80
2024/04/08 07:19:08;;;;;;;10.70;5.72;;;15.60;99.90;;;;;;5338785;26;20388;-79
2024/04/08 07:21:33;;;;;;;10.98;5.88;;;15.70;99.90;;;;;;5308965;26;20013;-80
2024/04/08 07:24:01;;;;;;;10.18;5.72;;;15.80;99.90;;;;;;5342553;26;20092;-79
2024/04/08 07:26:27;;;;;;;12.43;6.40;;;15.90;99.90;;;;;;5302356;26;20912;-80
2024/04/08 07:28:52;;;;;;;10.30;6.30;;;16.00;99.90;;;;;;5366928;26;20019;-79
2024/04/08 07:31:18;;;;;;;10.13;6.20;;;16.10;99.90;;;;;;5302586;26;20453;-79
2024/04/08 07:33:44;;;;;;;12.60;5.90;;;16.20;99.90;;;;;;5325971;26;20011;-79
2024/04/08 07:36:09;;;;;;;7.05;4.57;;;16.20;99.90;;;;;;5331016;26;20543;-79
2024/04/08 07:38:35;;;;;;;9.73;4.85;;;16.40;99.90;;;;;;5393036;26;20015;-79
2024/04/08 07:41:00;;;;;;;10.25;5.00;;;16.50;99.90;;;;;;5335682;26;20101;-80
2024/04/08 07:43:26;;;;;;;13.70;5.25;;;16.60;99.90;;;;;;5365919;26;19997;-79
2024/04/08 07:45:52;;;;;;;10.57;5.32;;;16.60;99.90;;;;;;5360292;26;20005;-80
2024/04/08 07:48:19;;;;;;;8.82;4.78;;;16.70;99.90;;;;;;5317980;26;20082;-80
2024/04/08 07:50:45;;;;;;;9.98;4.40;;;16.70;99.90;;;;;;5332017;26;20078;-79
2024/04/08 07:53:11;;;;;;;8.68;4.88;;;16.80;99.90;;;;;;5331220;26;20016;-80
2024/04/08 07:55:36;;;;;;;8.32;5.53;;;16.90;99.90;;;;;;5355025;26;20483;-79
2024/04/08 07:58:02;;;;;;;10.85;5.03;;;16.90;99.90;;;;;;5320950;26;20519;-79
2024/04/08 08:00:27;;;;;;;9.40;5.10;;;17.00;99.90;;;;;;5356084;26;20089;-79
2024/04/08 08:02:53;;;;;;;8.38;4.25;;;17.30;99.90;;;;;;5339776;26;20001;-80
2024/04/08 08:05:19;;;;;;;10.00;4.90;;;17.30;99.90;;;;;;5324948;26;20004;-79
2024/04/08 08:07:44;;;;;;;14.60;5.55;;;17.40;99.90;;;;;;5340564;26;20009;-79
2024/04/08 08:10:10;;;;;;;15.25;5.95;;;17.40;99.90;;;;;;5337103;26;20016;-80
2024/04/08 08:12:35;;;;;;;7.53;3.80;;;17.60;99.90;;;;;;5308372;26;20059;-80
2024/04/08 08:15:01;;;;;;;7.70;4.57;;;17.60;99.90;;;;;;5307154;26;20012;-78
2024/04/08 08:17:28;;;;;;;9.25;5.32;;;17.70;99.90;;;;;;5336870;26;20004;-79
2024/04/08 08:19:55;;;;;;;6.95;4.70;;;17.90;99.90;;;;;;5331450;26;20009;-79
2024/04/08 08:22:22;;;;;;;7.68;4.60;;;17.90;99.90;;;;;;5367358;26;20365;-79
2024/04/08 08:24:48;;;;;;;10.63;4.60;;;18.00;99.90;;;;;;5305040;26;20016;-78
2024/04/08 08:27:14;;;;;;;14.77;5.45;;;18.10;99.90;;;;;;5338011;26;20005;-79
2024/04/08 08:29:41;;;;;;;6.03;3.97;;;18.20;99.90;;;;;;5333756;26;20016;-79
2024/04/08 08:32:09;;;;;;;9.35;5.22;;;18.30;99.90;;;;;;5360404;26;20039;-78
2024/04/08 08:34:36;;;;;;;12.98;6.05;;;18.50;99.90;;;;;;5324292;26;20501;-79
2024/04/08 08:37:01;;;;;;;11.38;5.60;;;18.60;99.90;;;;;;5296615;26;20016;-79
2024/04/08 08:39:27;;;;;;;11.02;5.28;;;18.60;99.90;;;;;;5303934;26;20018;-79
2024/04/08 08:41:54;;;;;;;3.67;2.60;;;18.70;99.90;;;;;;5353081;26;20027;-79
2024/04/08 08:44:20;;;;;;;6.15;3.58;;;18.70;99.90;;;;;;5347189;26;20011;-79
2024/04/08 08:46:47;;;;;;;5.45;3.03;;;18.80;99.90;;;;;;5306497;26;20001;-78
2024/04/08 08:49:16;;;;;;;20.90;5.25;;;19.00;99.90;;;;;;5336859;26;20012;-78
2024/04/08 08:52:10;;;;;;;21.52;4.05;;;19.00;99.90;;;;;;5329743;26;20008;-79
2024/04/08 08:54:39;;;;;;;9.77;2.92;;;19.10;99.90;;;;;;5300664;26;20044;-81
2024/04/08 08:57:05;;;;;;;2.95;2.28;;;19.20;99.90;;;;;;5362581;26;20072;-78
2024/04/08 08:59:33;;;;;;;8.10;4.40;;;19.40;99.90;;;;;;5323501;26;20012;-78
2024/04/08 09:01:59;;;;;;;6.93;4.30;;;19.40;99.90;;;;;;5326721;26;20015;-78
2024/04/08 09:04:26;;;;;;;11.07;4.78;;;19.50;99.90;;;;;;5344522;26;19997;-78
2024/04/08 09:06:55;;;;;;;9.82;4.13;;;19.60;99.90;;;;;;5308152;26;20013;-79
2024/04/08 09:09:23;;;;;;;10.80;4.18;;;19.60;99.90;;;;;;5364054;26;20001;-79
2024/04/08 09:11:48;;;;;;;9.43;4.32;;;19.80;99.90;;;;;;5351414;26;20019;-79
2024/04/08 09:14:14;;;;;;;6.00;3.00;;;19.90;99.90;;;;;;5336987;26;19998;-78
2024/04/08 09:16:41;;;;;;;7.30;3.33;;;19.90;99.90;;;;;;5355617;26;19996;-78
2024/04/08 09:19:07;;;;;;;6.80;3.42;;;20.20;99.90;;;;;;5340299;26;20449;-78
2024/04/08 09:21:34;;;;;;;9.63;4.35;;;20.20;99.90;;;;;;5352600;26;20114;-78
2024/04/08 09:24:06;;;;;;;7.65;3.55;;;20.20;99.90;;;;;;5344514;26;20336;-78
2024/04/08 09:26:32;;;;;;;7.90;3.67;;;20.40;99.90;;;;;;5365809;26;20008;-78
2024/04/08 09:28:57;;;;;;;8.40;3.53;;;20.50;99.90;;;;;;5333640;26;20501;-78
2024/04/08 09:31:24;;;;;;;6.90;3.25;;;20.50;99.90;;;;;;5357697;26;20001;-79
2024/04/08 09:33:49;;;;;;;3.95;2.33;;;20.60;99.90;;;;;;5357409;26;20062;-78
2024/04/08 09:36:17;;;;;;;6.43;3.03;;;20.80;99.90;;;;;;5312408;26;20001;-79
2024/04/08 09:38:43;;;;;;;5.10;2.47;;;21.30;99.90;;;;;;5358815;26;20012;-79
2024/04/08 09:41:12;;;;;;;7.00;3.90;;;21.90;99.90;;;;;;5390248;26;20451;-79
2024/04/08 09:43:39;;;;;;;10.25;3.30;;;21.60;99.90;;;;;;5331700;26;20380;-80
2024/04/08 09:46:05;;;;;;;10.00;4.25;;;22.30;99.90;;;;;;5336895;26;20012;-79
2024/04/08 09:48:31;;;;;;;6.95;3.45;;;22.00;99.90;;;;;;5336264;26;20017;-78
2024/04/08 09:50:56;;;;;;;7.05;3.00;;;21.90;99.90;;;;;;5331888;26;20342;-78
2024/04/08 09:53:23;;;;;;;6.93;2.85;;;22.00;99.90;;;;;;5328659;26;20005;-78
2024/04/08 09:55:51;;;;;;;8.30;3.28;;;22.30;99.90;;;;;;5355940;26;20016;-78
2024/04/08 09:58:17;;;;;;;10.23;3.92;;;22.20;99.90;;;;;;5359169;26;20008;-78
2024/04/08 10:00:43;;;;;;;7.78;3.70;;;22.20;99.90;;;;;;5306337;26;20020;-79
2024/04/08 10:03:10;;;;;;;11.48;4.15;;;22.10;99.90;;;;;;5370228;26;20005;-78
2024/04/08 10:05:35;;;;;;;10.25;3.03;;;22.20;99.90;;;;;;5357901;26;20016;-78
2024/04/08 10:08:01;;;;;;;10.38;2.83;;;22.30;99.90;;;;;;5332469;26;20009;-79
2024/04/08 10:10:28;;;;;;;6.15;2.92;;;22.60;99.90;;;;;;5338079;26;20001;-78
2024/04/08 10:12:57;;;;;;;9.05;4.03;;;22.90;99.90;;;;;;5309869;26;20008;-78
2024/04/08 10:15:22;;;;;;;7.45;2.83;;;22.80;99.90;;;;;;5333009;26;20009;-79
2024/04/08 10:17:51;;;;;;;8.65;3.72;;;22.90;99.90;;;;;;5322206;26;20016;-78
2024/04/08 10:20:19;;;;;;;11.43;3.60;;;22.90;99.90;;;;;;5329762;26;20381;-78
2024/04/08 10:22:45;;;;;;;9.15;4.03;;;23.00;99.90;;;;;;5329005;26;20329;-78
2024/04/08 10:25:47;;;;;;;5.63;3.20;;;23.10;99.90;;;;;;5365830;26;20455;-78
2024/04/08 10:28:19;;;;;;;14.27;4.35;;;23.20;99.90;;;;;;5358657;26;20037;-78
2024/04/08 10:30:50;;;;;;;5.00;2.70;;;23.50;99.90;;;;;;5388922;26;21796;-78
2024/04/08 10:33:16;;;;;;;5.65;2.85;;;24.00;99.90;;;;;;5381611;26;20018;-77
2024/04/08 10:35:42;;;;;;;6.60;3.03;;;24.60;99.90;;;;;;5329899;26;20296;-77
2024/04/08 10:38:08;;;;;;;5.28;3.30;;;25.00;99.90;;;;;;5330673;26;20002;-78
2024/04/08 10:40:33;;;;;;;8.55;3.15;;;24.30;99.90;;;;;;5353097;26;20015;-81
2024/04/08 10:42:59;;;;;;;5.35;2.55;;;24.70;99.90;;;;;;5335188;26;20037;-78
2024/04/08 10:45:25;;;;;;;4.18;2.65;;;25.30;99.90;;;;;;5306744;26;20020;-79
2024/04/08 10:47:57;;;;;;;5.75;2.97;;;24.90;99.90;;;;;;5356093;26;20253;-79
2024/04/08 10:50:23;;;;;;;4.53;2.15;;;25.30;99.90;;;;;;5311217;26;20009;-78
2024/04/08 10:52:49;;;;;;;7.07;2.70;;;25.00;99.90;;;;;;5307518;26;20016;-79
2024/04/08 10:55:14;;;;;;;6.75;3.20;;;25.30;99.90;;;;;;5341161;26;20416;-78
2024/04/08 10:57:40;;;;;;;5.15;2.92;;;25.20;99.90;;;;;;5332294;26;20001;-79
2024/04/08 11:00:06;;;;;;;9.45;3.50;;;25.20;99.90;;;;;;5322237;26;20013;-78
2024/04/08 11:02:32;;;;;;;5.65;3.22;;;25.30;99.90;;;;;;5362453;26;20932;-79
2024/04/08 11:05:02;;;;;;;6.70;3.13;;;25.20;99.90;;;;;;5315037;26;20001;-79
2024/04/08 11:07:35;;;;;;;8.15;3.15;;;25.10;99.90;;;;;;5331903;26;20011;-79
2024/04/08 11:10:11;;;;;;;3.28;2.08;;;25.10;99.90;;;;;;5329112;26;20036;-79
2024/04/08 11:12:36;;;;;;;;;;;25.20;99.90;;;;;;5349745;26;20341;-80
2024/04/08 11:15:03;;;;;;;6.43;2.88;;;25.50;99.90;;;;;;5353134;26;19946;-79
2024/04/08 11:17:28;;;;;;;9.63;3.03;;;25.60;99.90;;;;;;5311896;26;20015;-80
2024/04/08 11:19:58;;;;;;;4.75;2.92;;;26.20;99.90;;;;;;5359114;26;20000;-80
2024/04/08 11:22:24;;;;;;;6.03;3.22;;;26.40;99.90;;;;;;5328320;26;20084;-80
2024/04/08 11:24:49;;;;;;;6.25;2.72;;;26.10;99.90;;;;;;5381731;26;20454;-81
2024/04/08 11:27:16;;;;;;;20.40;3.25;;;26.30;99.90;;;;;;5368051;26;20645;-81
2024/04/08 11:29:43;;;;;;;11.20;2.83;;;26.40;99.90;;;;;;5331354;26;20036;-81
2024/04/08 11:32:13;;;;;;;6.50;2.42;;;26.40;99.90;;;;;;5321170;26;20448;-82
2024/04/08 11:34:43;;;;;;;6.57;2.53;;;26.40;99.90;;;;;;5334364;26;20002;-81
2024/04/08 11:37:12;;;;;;;5.82;2.65;;;27.40;99.50;;;;;;5395404;26;20824;-82
2024/04/08 11:39:39;;;;;;;3.92;2.03;;;27.20;99.90;;;;;;5387506;26;20017;-82
2024/04/08 11:42:05;;;;;;;8.82;2.70;;;27.10;98.90;;;;;;5302675;26;20009;-82
2024/04/08 11:44:32;;;;;;;8.00;2.53;;;27.60;99.90;;;;;;5382399;26;20340;-82
2024/04/08 11:46:58;;;;;;;4.80;2.70;;;27.20;99.90;;;;;;5362719;26;20433;-83
2024/04/08 11:49:24;;;;;;;5.13;2.30;;;27.60;99.60;;;;;;5301931;26;20008;-83
2024/04/08 11:51:49;;;;;;;6.57;2.50;;;27.30;99.90;;;;;;5360870;26;20105;-82
2024/04/08 11:54:18;;;;;;;7.00;3.50;;;27.60;99.90;;;;;;5336611;26;20012;-82
2024/04/08 11:56:44;;;;;;;6.35;2.50;;;27.40;99.90;;;;;;5336432;26;20013;-82
2024/04/08 11:59:09;;;;;;;9.75;2.65;;;27.40;99.90;;;;;;5359956;26;20006;-83
2024/04/08 12:01:36;;;;;;;4.43;2.50;;;27.80;99.20;;;;;;5333788;26;19998;-83
2024/04/08 12:04:02;;;;;;;9.13;2.45;;;27.80;99.90;;;;;;5336099;26;20542;-83
2024/04/08 12:06:28;;;;;;;6.55;2.30;;;27.80;99.90;;;;;;5304631;26;20348;-83
2024/04/08 12:08:56;;;;;;;6.28;2.35;;;27.70;99.90;;;;;;5336219;26;20005;-83
2024/04/08 12:11:22;;;;;;;5.50;2.55;;;27.80;99.60;;;;;;5355854;26;20002;-83
2024/04/08 12:13:47;;;;;;;8.52;3.10;;;27.80;99.90;;;;;;5333561;26;20020;-83
2024/04/08 12:16:13;;;;;;;10.98;3.00;;;27.70;99.90;;;;;;5336548;26;20496;-83
2024/04/08 12:18:39;;;;;;;8.52;2.30;;;27.80;99.90;;;;;;5386551;26;20009;-84
2024/04/08 12:21:05;;;;;;;3.05;1.85;;;28.20;98.70;;;;;;5338366;26;20016;-83
2024/04/08 12:23:30;;;;;;;4.78;2.35;;;28.40;98.00;;;;;;5308961;26;20082;-83
2024/04/08 12:25:56;;;;;;;7.43;2.60;;;28.40;99.90;;;;;;5395658;26;20013;-83
2024/04/08 12:28:22;;;;;;;8.10;2.38;;;28.20;99.20;;;;;;5307214;26;20015;-83
2024/04/08 12:30:47;;;;;;;8.43;2.83;;;28.30;99.90;;;;;;5363376;26;20758;-82
2024/04/08 12:33:13;;;;;;;3.85;2.00;;;28.30;99.90;;;;;;5311464;26;20009;-82
2024/04/08 12:35:39;;;;;;;5.10;2.30;;;28.30;99.20;;;;;;5319873;26;20061;-82
2024/04/08 12:38:08;;;;;;;7.43;2.38;;;28.30;98.40;;;;;;5354163;26;20002;-83